createdAt,value
2018-11-22T12:17:17.412Z,35.33
2018-11-22T12:19:50.173Z,28.35
2018-11-22T12:22:22.252Z,29.52
2018-11-22T12:24:55.515Z,27.35
2018-11-22T12:27:27.413Z,27.70
2018-11-22T12:29:59.571Z,29.07
2018-11-22T12:32:36.074Z,28.32
2018-11-22T12:35:14.993Z,28.10
2018-11-22T12:37:51.532Z,28.25
2018-11-22T12:40:23.573Z,29.67
2018-11-22T12:42:55.532Z,28.05
2018-11-22T12:45:28.811Z,28.30
2018-11-22T12:48:00.993Z,29.40
2018-11-22T12:50:32.794Z,29.67
2018-11-22T12:53:04.172Z,26.95
2018-11-22T12:55:36.232Z,27.98
2018-11-22T12:58:08.792Z,28.27
2018-11-22T13:00:40.631Z,29.20
2018-11-22T13:03:12.659Z,28.83
2018-11-22T13:05:44.572Z,26.90
2018-11-22T13:08:16.392Z,27.42
2018-11-22T13:10:48.113Z,28.50
2018-11-22T13:13:19.656Z,29.82
2018-11-22T13:15:51.592Z,29.60
2018-11-22T13:18:24.952Z,28.85
2018-11-22T13:20:56.872Z,30.95
2018-11-22T13:23:29.914Z,30.65
2018-11-22T13:26:02.086Z,30.12
2018-11-22T13:28:34.112Z,29.02
2018-11-22T13:31:05.752Z,29.70
2018-11-22T13:33:37.975Z,28.65
2018-11-22T13:36:10.252Z,28.25
2018-11-22T13:38:42.092Z,30.52
2018-11-22T13:41:13.333Z,29.07
2018-11-22T13:43:45.457Z,28.20
2018-11-22T13:46:16.172Z,27.95
2018-11-22T13:48:47.371Z,27.73
2018-11-22T13:51:18.315Z,25.88
2018-11-22T13:53:50.242Z,28.57
2018-11-22T13:56:23.584Z,29.25
2018-11-22T13:58:55.166Z,27.32
2018-11-22T14:01:27.184Z,28.57
2018-11-22T14:04:00.184Z,30.43
2018-11-22T14:06:31.547Z,30.12
2018-11-22T14:09:03.669Z,27.40
2018-11-22T14:11:35.953Z,29.57
2018-11-22T14:14:08.462Z,29.87
2018-11-22T14:16:40.761Z,31.50
2018-11-22T14:19:12.806Z,30.90
2018-11-22T14:21:44.633Z,31.33
2018-11-22T14:24:16.590Z,28.70
2018-11-22T14:26:47.276Z,30.62
2018-11-22T14:29:19.188Z,30.43
2018-11-22T14:31:51.073Z,30.50
2018-11-22T14:34:23.561Z,32.03
2018-11-22T14:36:55.766Z,29.70
2018-11-22T14:39:27.206Z,30.08
2018-11-22T14:42:00.805Z,30.40
2018-11-22T14:44:34.351Z,29.98
2018-11-22T14:47:06.414Z,30.77
2018-11-22T14:49:38.407Z,28.55
2018-11-22T14:52:10.693Z,29.05
2018-11-22T14:54:42.120Z,30.97
2018-11-22T14:57:14.452Z,29.72
2018-11-22T14:59:46.273Z,30.25
2018-11-22T15:02:18.554Z,30.12
2018-11-22T15:04:51.014Z,29.80
2018-11-22T15:07:28.587Z,34.90
2018-11-22T15:09:55.715Z,31.52
2018-11-22T15:12:27.253Z,31.20
2018-11-22T15:14:59.678Z,32.08
2018-11-22T15:17:31.936Z,32.30
2018-11-22T15:20:04.712Z,31.52
2018-11-22T15:22:36.113Z,29.55
2018-11-22T15:25:10.313Z,29.27
2018-11-22T15:27:43.612Z,29.48
2018-11-22T15:30:18.733Z,29.52
2018-11-22T15:32:50.472Z,30.82
2018-11-22T15:35:24.132Z,31.45
2018-11-22T15:37:56.593Z,28.20
2018-11-22T15:40:29.272Z,28.45
2018-11-22T15:43:02.072Z,29.23
2018-11-22T15:45:35.126Z,26.62
2018-11-22T15:48:05.893Z,28.25
2018-11-22T15:50:38.561Z,30.75
2018-11-22T15:53:10.516Z,28.90
2018-11-22T15:55:42.432Z,28.45
2018-11-22T15:58:14.653Z,28.55
2018-11-22T16:00:46.558Z,29.75
2018-11-22T16:03:19.072Z,32.67
2018-11-22T16:05:50.872Z,29.18
2018-11-22T16:08:22.753Z,28.80
2018-11-22T16:10:54.752Z,33.25
2018-11-22T16:13:27.089Z,34.00
2018-11-22T16:15:58.852Z,27.35
2018-11-22T16:18:29.632Z,25.35
2018-11-22T16:21:01.393Z,25.05
2018-11-22T16:23:32.984Z,25.88
2018-11-22T16:26:04.644Z,23.90
2018-11-22T16:28:36.105Z,22.50
2018-11-22T16:31:08.503Z,22.05
2018-11-22T16:33:40.323Z,25.02
2018-11-22T16:36:12.665Z,25.50
2018-11-22T16:38:44.883Z,23.47
2018-11-22T16:41:17.025Z,21.17
2018-11-22T16:43:49.360Z,20.43
2018-11-22T16:46:21.412Z,21.23
2018-11-22T16:48:53.520Z,20.92
2018-11-22T16:51:25.554Z,20.92
2018-11-22T16:53:57.374Z,19.82
2018-11-22T16:56:29.195Z,21.73
2018-11-22T16:59:00.474Z,21.05
2018-11-22T17:01:32.931Z,21.17
2018-11-22T17:04:04.144Z,21.73
2018-11-22T17:06:37.052Z,21.80
2018-11-22T17:09:09.705Z,22.20
2018-11-22T17:11:42.084Z,22.75
2018-11-22T17:14:14.125Z,21.60
2018-11-22T17:16:45.967Z,20.90
2018-11-22T17:19:16.699Z,27.30
2018-11-22T17:21:48.300Z,30.88
2018-11-22T17:24:19.738Z,22.40
2018-11-22T17:26:51.799Z,21.05
2018-11-22T17:29:26.058Z,23.42
2018-11-22T17:31:57.002Z,20.65
2018-11-22T17:34:29.136Z,20.32
2018-11-22T17:37:01.080Z,21.40
2018-11-22T17:39:33.049Z,21.10
2018-11-22T17:42:04.235Z,21.85
2018-11-22T17:44:35.755Z,21.30
2018-11-22T17:47:07.155Z,22.67
2018-11-22T17:49:38.352Z,22.95
2018-11-22T17:52:10.755Z,22.17
2018-11-22T17:54:43.246Z,23.52
2018-11-22T17:57:14.746Z,24.95
2018-11-22T17:59:46.864Z,21.68
2018-11-22T18:02:19.149Z,23.20
2018-11-22T18:04:51.596Z,21.52
2018-11-22T18:07:23.050Z,23.70
2018-11-22T18:09:55.196Z,24.85
2018-11-22T18:12:27.957Z,24.70
2018-11-22T18:15:00.813Z,25.32
2018-11-22T18:17:34.371Z,30.75
2018-11-22T18:20:06.478Z,26.60
2018-11-22T18:22:39.278Z,27.50
2018-11-22T18:25:16.032Z,25.50
2018-11-22T18:27:48.985Z,26.02
2018-11-22T18:30:22.853Z,27.80
2018-11-22T18:32:56.196Z,25.15
2018-11-22T18:35:28.053Z,26.85
2018-11-22T18:37:59.913Z,28.47
2018-11-22T18:40:32.994Z,28.35
2018-11-22T18:43:05.635Z,26.25
2018-11-22T18:45:39.792Z,26.17
2018-11-22T18:48:13.675Z,32.33
2018-11-22T18:50:47.055Z,28.30
2018-11-22T18:53:19.954Z,26.15
2018-11-22T18:55:52.413Z,28.27
2018-11-22T18:58:25.113Z,27.67
2018-11-22T19:00:57.013Z,28.67
2018-11-22T19:03:28.713Z,27.05
2018-11-22T19:06:01.053Z,25.55
2018-11-22T19:08:34.633Z,26.07
2018-11-22T19:11:07.493Z,24.95
2018-11-22T19:13:39.434Z,25.35
2018-11-22T19:16:12.733Z,24.75
2018-11-22T19:18:44.354Z,26.93
2018-11-22T19:21:16.419Z,26.52
2018-11-22T19:23:48.516Z,26.55
2018-11-22T19:26:20.675Z,25.60
2018-11-22T19:28:53.812Z,26.17
2018-11-22T19:31:26.813Z,34.90
2018-11-22T19:33:58.233Z,28.70
2018-11-22T19:36:30.873Z,25.75
2018-11-22T19:39:03.033Z,26.70
2018-11-22T19:41:35.232Z,26.27
2018-11-22T19:44:07.194Z,27.93
2018-11-22T19:46:38.873Z,28.15
2018-11-22T19:49:10.773Z,26.00
2018-11-22T19:51:43.194Z,26.35
2018-11-22T19:54:15.292Z,25.95
2018-11-22T19:56:47.214Z,27.70
2018-11-22T19:59:19.093Z,27.37
2018-11-22T20:01:51.415Z,26.70
2018-11-22T20:04:22.553Z,31.60
2018-11-22T20:06:55.633Z,26.57
2018-11-22T20:09:26.873Z,26.02
2018-11-22T20:12:00.272Z,25.90
2018-11-22T20:14:32.493Z,23.80
2018-11-22T20:17:05.253Z,26.87
2018-11-22T20:19:37.013Z,29.20
2018-11-22T20:22:09.595Z,31.95
2018-11-22T20:24:41.450Z,31.68
2018-11-22T20:27:13.893Z,28.92
2018-11-22T20:29:46.374Z,30.82
2018-11-22T20:32:18.233Z,35.45
2018-11-22T20:34:50.232Z,33.75
2018-11-22T20:37:22.393Z,30.25
2018-11-22T20:39:54.492Z,34.40
2018-11-22T20:42:26.933Z,32.00
2018-11-22T20:44:58.434Z,31.45
2018-11-22T20:47:31.274Z,30.17
2018-11-22T20:50:02.553Z,29.02
2018-11-22T20:52:34.794Z,28.95
2018-11-22T20:55:06.713Z,29.10
2018-11-22T20:57:38.716Z,29.05
2018-11-22T21:00:13.912Z,29.20
2018-11-22T21:02:46.813Z,29.40
2018-11-22T21:05:19.913Z,29.55
2018-11-22T21:07:51.953Z,30.12
2018-11-22T21:10:24.773Z,29.90
2018-11-22T21:12:57.217Z,27.25
2018-11-22T21:15:31.953Z,28.15
2018-11-22T21:18:05.394Z,25.50
2018-11-22T21:20:38.754Z,26.68
2018-11-22T21:23:10.280Z,25.30
2018-11-22T21:25:42.234Z,27.02
2018-11-22T21:28:14.273Z,29.35
2018-11-22T21:30:46.132Z,29.27
2018-11-22T21:33:18.354Z,26.48
2018-11-22T21:35:50.135Z,25.55
2018-11-22T21:38:22.552Z,25.30
2018-11-22T21:40:54.175Z,29.85
2018-11-22T21:43:26.835Z,24.05
2018-11-22T21:45:59.932Z,23.87
2018-11-22T21:48:31.633Z,23.00
2018-11-22T21:51:03.872Z,23.67
2018-11-22T21:53:36.053Z,25.82
2018-11-22T21:56:07.993Z,23.87
2018-11-22T21:58:40.413Z,23.22
2018-11-22T22:01:12.172Z,23.25
2018-11-22T22:03:44.654Z,21.93
2018-11-22T22:06:16.354Z,23.02
2018-11-22T22:08:48.653Z,23.40
2018-11-22T22:11:20.092Z,22.35
2018-11-22T22:13:53.074Z,22.15
2018-11-22T22:16:24.794Z,21.57
2018-11-22T22:18:57.692Z,21.85
2018-11-22T22:21:29.433Z,19.95
2018-11-22T22:24:02.394Z,21.15
2018-11-22T22:26:34.253Z,22.20
2018-11-22T22:29:06.493Z,21.87
2018-11-22T22:31:38.034Z,21.40
2018-11-22T22:34:10.473Z,21.42
2018-11-22T22:36:42.832Z,21.82
2018-11-22T22:39:14.553Z,21.95
2018-11-22T22:41:45.614Z,20.97
2018-11-22T22:44:16.654Z,22.00
2018-11-22T22:46:49.133Z,22.02
2018-11-22T22:49:20.533Z,22.77
2018-11-22T22:51:53.274Z,20.85
2018-11-22T22:54:25.113Z,20.10
2018-11-22T22:56:57.433Z,21.12
2018-11-22T22:59:29.113Z,21.85
2018-11-22T23:02:01.113Z,20.08
2018-11-22T23:04:33.594Z,20.97
2018-11-22T23:07:05.293Z,21.12
2018-11-22T23:09:38.273Z,20.40
2018-11-22T23:12:10.333Z,22.48
2018-11-22T23:14:43.036Z,21.40
2018-11-22T23:17:15.553Z,20.27
2018-11-22T23:19:47.374Z,22.45
2018-11-22T23:22:19.453Z,23.62
2018-11-22T23:24:51.913Z,24.70
2018-11-22T23:27:23.673Z,22.27
2018-11-22T23:29:55.993Z,28.00
2018-11-22T23:32:27.992Z,22.42
2018-11-22T23:35:00.036Z,25.20
2018-11-22T23:37:31.634Z,24.07
2018-11-22T23:40:04.213Z,27.25
2018-11-22T23:42:36.453Z,20.90
2018-11-22T23:45:10.393Z,19.50
2018-11-22T23:47:42.913Z,20.30
2018-11-22T23:50:23.573Z,21.65
2018-11-22T23:52:58.173Z,20.70
2018-11-22T23:55:31.258Z,20.82
2018-11-22T23:58:03.614Z,21.90
